sensor_id;sensor_type;location;lat;lon;timestamp;temperature;humidity
17452;DHT22;8843;48.838;9.324;2023-10-19T00:02:08;12.70;74.70
17452;DHT22;8843;48.838;9.324;2023-10-19T00:04:36;12.70;74.80
17452;DHT22;8843;48.838;9.324;2023-10-19T00:07:02;12.70;74.60
17452;DHT22;8843;48.838;9.324;2023-10-19T00:09:31;12.70;74.70
17452;DHT22;8843;48.838;9.324;2023-10-19T00:12:03;12.70;74.70
17452;DHT22;8843;48.838;9.324;2023-10-19T00:14:31;12.70;74.60
17452;DHT22;8843;48.838;9.324;2023-10-19T00:16:58;12.80;74.80
17452;DHT22;8843;48.838;9.324;2023-10-19T00:19:32;12.70;74.80
17452;DHT22;8843;48.838;9.324;2023-10-19T00:22:05;12.70;74.60
17452;DHT22;8843;48.838;9.324;2023-10-19T00:24:34;12.70;74.60
17452;DHT22;8843;48.838;9.324;2023-10-19T00:27:01;12.70;74.70
17452;DHT22;8843;48.838;9.324;2023-10-19T00:29:31;12.70;74.80
17452;DHT22;8843;48.838;9.324;2023-10-19T00:31:59;12.70;74.70
17452;DHT22;8843;48.838;9.324;2023-10-19T00:34:28;12.70;74.60
17452;DHT22;8843;48.838;9.324;2023-10-19T00:36:57;12.70;74.80
17452;DHT22;8843;48.838;9.324;2023-10-19T00:39:27;12.70;74.70
17452;DHT22;8843;48.838;9.324;2023-10-19T00:42:05;12.70;75.30
17452;DHT22;8843;48.838;9.324;2023-10-19T00:44:32;12.70;74.90
17452;DHT22;8843;48.838;9.324;2023-10-19T00:47:03;12.70;74.90
17452;DHT22;8843;48.838;9.324;2023-10-19T00:49:30;12.70;74.80
17452;DHT22;8843;48.838;9.324;2023-10-19T00:52:00;12.80;75.00
17452;DHT22;8843;48.838;9.324;2023-10-19T00:54:39;12.70;74.80
17452;DHT22;8843;48.838;9.324;2023-10-19T00:57:13;12.80;74.80
17452;DHT22;8843;48.838;9.324;2023-10-19T00:59:41;12.70;75.50
17452;DHT22;8843;48.838;9.324;2023-10-19T01:02:13;12.80;74.90
17452;DHT22;8843;48.838;9.324;2023-10-19T01:04:45;12.80;74.90
17452;DHT22;8843;48.838;9.324;2023-10-19T01:07:17;12.70;75.00
17452;DHT22;8843;48.838;9.324;2023-10-19T01:09:48;12.70;75.00
17452;DHT22;8843;48.838;9.324;2023-10-19T01:12:19;12.80;75.10
17452;DHT22;8843;48.838;9.324;2023-10-19T01:15:07;12.70;75.00
17452;DHT22;8843;48.838;9.324;2023-10-19T01:17:36;12.70;74.90
17452;DHT22;8843;48.838;9.324;2023-10-19T01:20:09;12.80;75.20
17452;DHT22;8843;48.838;9.324;2023-10-19T01:22:52;12.70;75.20
17452;DHT22;8843;48.838;9.324;2023-10-19T01:25:42;12.70;75.00
17452;DHT22;8843;48.838;9.324;2023-10-19T01:28:15;12.70;75.20
17452;DHT22;8843;48.838;9.324;2023-10-19T01:30:43;12.70;75.00
17452;DHT22;8843;48.838;9.324;2023-10-19T01:33:11;12.80;75.90
17452;DHT22;8843;48.838;9.324;2023-10-19T01:35:41;12.70;75.10
17452;DHT22;8843;48.838;9.324;2023-10-19T01:38:27;12.80;75.10
17452;DHT22;8843;48.838;9.324;2023-10-19T01:40:56;12.80;75.20
17452;DHT22;8843;48.838;9.324;2023-10-19T01:43:25;12.70;75.10
17452;DHT22;8843;48.838;9.324;2023-10-19T01:45:55;12.70;75.30
17452;DHT22;8843;48.838;9.324;2023-10-19T01:48:23;12.70;75.20
17452;DHT22;8843;48.838;9.324;2023-10-19T01:50:59;12.70;75.70
17452;DHT22;8843;48.838;9.324;2023-10-19T01:53:26;12.80;75.30
17452;DHT22;8843;48.838;9.324;2023-10-19T01:55:55;12.80;75.20
17452;DHT22;8843;48.838;9.324;2023-10-19T01:58:23;12.70;75.10
17452;DHT22;8843;48.838;9.324;2023-10-19T02:00:51;12.70;75.30
17452;DHT22;8843;48.838;9.324;2023-10-19T02:03:20;12.70;75.00
17452;DHT22;8843;48.838;9.324;2023-10-19T02:05:48;12.70;75.10
17452;DHT22;8843;48.838;9.324;2023-10-19T02:08:16;12.80;75.30
17452;DHT22;8843;48.838;9.324;2023-10-19T02:10:47;12.70;75.10
17452;DHT22;8843;48.838;9.324;2023-10-19T02:13:14;12.70;75.10
17452;DHT22;8843;48.838;9.324;2023-10-19T02:15:42;12.80;75.10
17452;DHT22;8843;48.838;9.324;2023-10-19T02:18:10;12.70;76.60
17452;DHT22;8843;48.838;9.324;2023-10-19T02:20:36;12.80;75.50
17452;DHT22;8843;48.838;9.324;2023-10-19T02:23:06;12.80;75.20
17452;DHT22;8843;48.838;9.324;2023-10-19T02:25:32;12.70;75.40
17452;DHT22;8843;48.838;9.324;2023-10-19T02:28:04;12.70;75.20
17452;DHT22;8843;48.838;9.324;2023-10-19T02:30:32;12.80;75.30
17452;DHT22;8843;48.838;9.324;2023-10-19T02:32:59;12.70;75.50
17452;DHT22;8843;48.838;9.324;2023-10-19T02:35:29;12.70;75.50
17452;DHT22;8843;48.838;9.324;2023-10-19T02:37:56;12.80;75.70
17452;DHT22;8843;48.838;9.324;2023-10-19T02:40:23;12.80;76.30
17452;DHT22;8843;48.838;9.324;2023-10-19T02:42:50;12.70;75.50
17452;DHT22;8843;48.838;9.324;2023-10-19T02:45:20;12.70;75.60
17452;DHT22;8843;48.838;9.324;2023-10-19T02:47:46;12.70;75.90
17452;DHT22;8843;48.838;9.324;2023-10-19T02:50:14;12.70;75.70
17452;DHT22;8843;48.838;9.324;2023-10-19T02:52:42;12.70;75.90
17452;DHT22;8843;48.838;9.324;2023-10-19T02:55:09;12.70;75.60
17452;DHT22;8843;48.838;9.324;2023-10-19T02:57:36;12.70;75.70
17452;DHT22;8843;48.838;9.324;2023-10-19T03:00:05;12.70;75.80
17452;DHT22;8843;48.838;9.324;2023-10-19T03:02:38;12.70;75.90
17452;DHT22;8843;48.838;9.324;2023-10-19T03:05:05;12.70;75.80
17452;DHT22;8843;48.838;9.324;2023-10-19T03:07:39;12.70;75.80
17452;DHT22;8843;48.838;9.324;2023-10-19T03:10:07;12.70;75.80
17452;DHT22;8843;48.838;9.324;2023-10-19T03:12:48;12.70;75.70
17452;DHT22;8843;48.838;9.324;2023-10-19T03:15:15;12.70;75.80
17452;DHT22;8843;48.838;9.324;2023-10-19T03:17:44;12.70;75.80
17452;DHT22;8843;48.838;9.324;2023-10-19T03:20:11;12.80;75.90
17452;DHT22;8843;48.838;9.324;2023-10-19T03:22:38;12.80;75.80
17452;DHT22;8843;48.838;9.324;2023-10-19T03:25:05;12.80;76.60
17452;DHT22;8843;48.838;9.324;2023-10-19T03:27:58;12.70;75.70
17452;DHT22;8843;48.838;9.324;2023-10-19T03:30:31;12.70;75.70
17452;DHT22;8843;48.838;9.324;2023-10-19T03:33:00;12.70;76.50
17452;DHT22;8843;48.838;9.324;2023-10-19T03:35:27;12.70;75.90
17452;DHT22;8843;48.838;9.324;2023-10-19T03:37:53;12.80;75.80
17452;DHT22;8843;48.838;9.324;2023-10-19T03:40:24;12.80;75.90
17452;DHT22;8843;48.838;9.324;2023-10-19T03:42:55;12.80;75.80
17452;DHT22;8843;48.838;9.324;2023-10-19T03:45:22;12.70;75.90
17452;DHT22;8843;48.838;9.324;2023-10-19T03:47:50;12.70;75.80
17452;DHT22;8843;48.838;9.324;2023-10-19T03:50:22;12.80;75.80
17452;DHT22;8843;48.838;9.324;2023-10-19T03:52:50;12.80;75.80
17452;DHT22;8843;48.838;9.324;2023-10-19T03:55:19;12.80;75.80
17452;DHT22;8843;48.838;9.324;2023-10-19T03:57:48;12.80;75.80
17452;DHT22;8843;48.838;9.324;2023-10-19T04:00:20;12.80;75.80
17452;DHT22;8843;48.838;9.324;2023-10-19T04:02:50;12.80;75.90
17452;DHT22;8843;48.838;9.324;2023-10-19T04:05:18;12.80;75.90
17452;DHT22;8843;48.838;9.324;2023-10-19T04:07:49;12.80;75.80
17452;DHT22;8843;48.838;9.324;2023-10-19T04:10:20;12.80;75.80
17452;DHT22;8843;48.838;9.324;2023-10-19T04:13:04;12.80;75.80
17452;DHT22;8843;48.838;9.324;2023-10-19T04:15:35;12.80;75.90
17452;DHT22;8843;48.838;9.324;2023-10-19T04:18:03;12.80;75.80
17452;DHT22;8843;48.838;9.324;2023-10-19T04:20:34;12.80;75.90
17452;DHT22;8843;48.838;9.324;2023-10-19T04:23:09;12.80;76.50
17452;DHT22;8843;48.838;9.324;2023-10-19T04:25:39;12.80;75.80
17452;DHT22;8843;48.838;9.324;2023-10-19T04:28:06;12.80;75.80
17452;DHT22;8843;48.838;9.324;2023-10-19T04:30:34;12.80;75.80
17452;DHT22;8843;48.838;9.324;2023-10-19T04:33:03;12.80;75.80
17452;DHT22;8843;48.838;9.324;2023-10-19T04:35:34;12.80;75.70
17452;DHT22;8843;48.838;9.324;2023-10-19T04:38:04;12.70;75.80
17452;DHT22;8843;48.838;9.324;2023-10-19T04:40:33;12.80;75.90
17452;DHT22;8843;48.838;9.324;2023-10-19T04:43:02;12.80;75.90
17452;DHT22;8843;48.838;9.324;2023-10-19T04:45:30;12.80;75.80
17452;DHT22;8843;48.838;9.324;2023-10-19T04:47:57;12.80;75.90
17452;DHT22;8843;48.838;9.324;2023-10-19T04:50:24;12.80;76.60
17452;DHT22;8843;48.838;9.324;2023-10-19T04:52:51;12.80;75.90
17452;DHT22;8843;48.838;9.324;2023-10-19T04:55:18;12.80;75.90
17452;DHT22;8843;48.838;9.324;2023-10-19T04:57:46;12.80;75.80
17452;DHT22;8843;48.838;9.324;2023-10-19T05:00:13;12.80;75.90
17452;DHT22;8843;48.838;9.324;2023-10-19T05:02:41;12.80;75.80
17452;DHT22;8843;48.838;9.324;2023-10-19T05:05:08;12.80;76.60
17452;DHT22;8843;48.838;9.324;2023-10-19T05:07:35;12.80;75.90
17452;DHT22;8843;48.838;9.324;2023-10-19T05:10:04;12.80;75.90
17452;DHT22;8843;48.838;9.324;2023-10-19T05:12:32;12.80;75.80
17452;DHT22;8843;48.838;9.324;2023-10-19T05:15:00;12.80;75.90
17452;DHT22;8843;48.838;9.324;2023-10-19T05:17:27;12.80;75.90
17452;DHT22;8843;48.838;9.324;2023-10-19T05:19:54;12.80;78.20
17452;DHT22;8843;48.838;9.324;2023-10-19T05:22:22;13.40;80.40
17452;DHT22;8843;48.838;9.324;2023-10-19T05:24:50;13.30;79.30
17452;DHT22;8843;48.838;9.324;2023-10-19T05:27:17;13.20;80.20
17452;DHT22;8843;48.838;9.324;2023-10-19T05:29:45;13.10;80.30
17452;DHT22;8843;48.838;9.324;2023-10-19T05:32:13;13.20;80.50
17452;DHT22;8843;48.838;9.324;2023-10-19T05:34:40;13.30;80.40
17452;DHT22;8843;48.838;9.324;2023-10-19T05:37:07;13.40;79.20
17452;DHT22;8843;48.838;9.324;2023-10-19T05:39:34;13.20;79.40
17452;DHT22;8843;48.838;9.324;2023-10-19T05:42:02;13.10;79.40
17452;DHT22;8843;48.838;9.324;2023-10-19T05:44:30;13.00;80.10
17452;DHT22;8843;48.838;9.324;2023-10-19T05:46:57;13.10;80.60
17452;DHT22;8843;48.838;9.324;2023-10-19T05:49:25;12.80;81.10
17452;DHT22;8843;48.838;9.324;2023-10-19T05:51:53;12.70;81.70
17452;DHT22;8843;48.838;9.324;2023-10-19T05:54:20;12.70;82.10
17452;DHT22;8843;48.838;9.324;2023-10-19T05:56:49;12.70;82.20
17452;DHT22;8843;48.838;9.324;2023-10-19T05:59:16;12.80;82.10
17452;DHT22;8843;48.838;9.324;2023-10-19T06:01:43;12.70;82.50
17452;DHT22;8843;48.838;9.324;2023-10-19T06:04:12;12.70;82.40
17452;DHT22;8843;48.838;9.324;2023-10-19T06:06:40;12.70;82.50
17452;DHT22;8843;48.838;9.324;2023-10-19T06:09:08;12.70;82.50
17452;DHT22;8843;48.838;9.324;2023-10-19T06:11:35;12.70;82.80
17452;DHT22;8843;48.838;9.324;2023-10-19T06:14:03;13.20;80.20
17452;DHT22;8843;48.838;9.324;2023-10-19T06:16:32;13.10;80.40
17452;DHT22;8843;48.838;9.324;2023-10-19T06:19:00;13.10;80.80
17452;DHT22;8843;48.838;9.324;2023-10-19T06:21:27;13.00;80.30
17452;DHT22;8843;48.838;9.324;2023-10-19T06:23:58;13.00;80.30
17452;DHT22;8843;48.838;9.324;2023-10-19T06:26:25;13.00;80.20
17452;DHT22;8843;48.838;9.324;2023-10-19T06:28:52;13.00;80.10
17452;DHT22;8843;48.838;9.324;2023-10-19T06:31:24;13.00;79.90
17452;DHT22;8843;48.838;9.324;2023-10-19T06:33:51;13.00;79.80
17452;DHT22;8843;48.838;9.324;2023-10-19T06:36:18;12.90;79.60
17452;DHT22;8843;48.838;9.324;2023-10-19T06:38:45;12.90;79.60
17452;DHT22;8843;48.838;9.324;2023-10-19T06:41:16;12.90;79.50
17452;DHT22;8843;48.838;9.324;2023-10-19T06:43:44;13.00;79.50
17452;DHT22;8843;48.838;9.324;2023-10-19T06:46:10;12.90;79.30
17452;DHT22;8843;48.838;9.324;2023-10-19T06:48:38;12.90;79.20
17452;DHT22;8843;48.838;9.324;2023-10-19T06:51:05;12.90;79.10
17452;DHT22;8843;48.838;9.324;2023-10-19T06:53:32;12.90;79.90
17452;DHT22;8843;48.838;9.324;2023-10-19T06:55:59;12.90;79.00
17452;DHT22;8843;48.838;9.324;2023-10-19T06:58:39;12.90;78.90
17452;DHT22;8843;48.838;9.324;2023-10-19T07:01:10;12.80;81.00
17452;DHT22;8843;48.838;9.324;2023-10-19T07:03:38;12.50;84.20
17452;DHT22;8843;48.838;9.324;2023-10-19T07:06:05;12.30;85.40
17452;DHT22;8843;48.838;9.324;2023-10-19T07:08:33;12.20;86.00
17452;DHT22;8843;48.838;9.324;2023-10-19T07:11:00;12.20;86.70
17452;DHT22;8843;48.838;9.324;2023-10-19T07:13:27;12.20;87.20
17452;DHT22;8843;48.838;9.324;2023-10-19T07:15:59;12.20;87.60
17452;DHT22;8843;48.838;9.324;2023-10-19T07:18:26;12.20;87.80
17452;DHT22;8843;48.838;9.324;2023-10-19T07:20:54;12.10;88.60
17452;DHT22;8843;48.838;9.324;2023-10-19T07:23:28;12.10;88.10
17452;DHT22;8843;48.838;9.324;2023-10-19T07:25:55;12.20;88.40
17452;DHT22;8843;48.838;9.324;2023-10-19T07:28:25;12.20;89.00
17452;DHT22;8843;48.838;9.324;2023-10-19T07:30:53;12.90;85.50
17452;DHT22;8843;48.838;9.324;2023-10-19T07:33:21;13.00;84.20
17452;DHT22;8843;48.838;9.324;2023-10-19T07:35:49;12.90;83.20
17452;DHT22;8843;48.838;9.324;2023-10-19T07:38:18;12.90;83.00
17452;DHT22;8843;48.838;9.324;2023-10-19T07:40:47;12.90;83.60
17452;DHT22;8843;48.838;9.324;2023-10-19T07:43:14;12.90;82.60
17452;DHT22;8843;48.838;9.324;2023-10-19T07:45:41;12.80;82.40
17452;DHT22;8843;48.838;9.324;2023-10-19T07:48:08;12.80;82.30
17452;DHT22;8843;48.838;9.324;2023-10-19T07:50:39;12.80;82.40
17452;DHT22;8843;48.838;9.324;2023-10-19T07:53:08;12.90;82.30
17452;DHT22;8843;48.838;9.324;2023-10-19T07:55:36;12.90;82.40
17452;DHT22;8843;48.838;9.324;2023-10-19T07:58:04;12.90;81.90
17452;DHT22;8843;48.838;9.324;2023-10-19T08:00:32;12.80;81.70
17452;DHT22;8843;48.838;9.324;2023-10-19T08:03:00;12.80;81.50
17452;DHT22;8843;48.838;9.324;2023-10-19T08:05:27;12.80;81.90
17452;DHT22;8843;48.838;9.324;2023-10-19T08:07:56;12.90;81.50
17452;DHT22;8843;48.838;9.324;2023-10-19T08:10:24;12.80;81.70
17452;DHT22;8843;48.838;9.324;2023-10-19T08:12:52;12.90;81.30
17452;DHT22;8843;48.838;9.324;2023-10-19T08:15:21;12.90;81.30
17452;DHT22;8843;48.838;9.324;2023-10-19T08:17:49;12.90;81.10
17452;DHT22;8843;48.838;9.324;2023-10-19T08:20:16;12.90;81.40
17452;DHT22;8843;48.838;9.324;2023-10-19T08:22:48;12.90;81.10
17452;DHT22;8843;48.838;9.324;2023-10-19T08:25:17;12.90;81.00
17452;DHT22;8843;48.838;9.324;2023-10-19T08:27:45;12.90;81.00
17452;DHT22;8843;48.838;9.324;2023-10-19T08:30:14;12.90;82.80
17452;DHT22;8843;48.838;9.324;2023-10-19T08:32:43;12.90;82.00
17452;DHT22;8843;48.838;9.324;2023-10-19T08:35:13;12.90;81.40
17452;DHT22;8843;48.838;9.324;2023-10-19T08:37:41;12.90;82.90
17452;DHT22;8843;48.838;9.324;2023-10-19T08:40:11;12.90;83.60
17452;DHT22;8843;48.838;9.324;2023-10-19T08:42:41;12.90;83.40
17452;DHT22;8843;48.838;9.324;2023-10-19T08:45:09;12.90;82.60
17452;DHT22;8843;48.838;9.324;2023-10-19T08:47:41;12.90;82.30
17452;DHT22;8843;48.838;9.324;2023-10-19T08:50:12;12.90;83.60
17452;DHT22;8843;48.838;9.324;2023-10-19T08:52:41;12.90;85.80
17452;DHT22;8843;48.838;9.324;2023-10-19T08:55:08;12.90;86.50
17452;DHT22;8843;48.838;9.324;2023-10-19T08:57:40;12.90;85.50
17452;DHT22;8843;48.838;9.324;2023-10-19T09:00:09;12.90;88.90
17452;DHT22;8843;48.838;9.324;2023-10-19T09:02:37;12.90;90.00
17452;DHT22;8843;48.838;9.324;2023-10-19T09:05:09;12.90;90.20
17452;DHT22;8843;48.838;9.324;2023-10-19T09:07:48;13.10;91.80
17452;DHT22;8843;48.838;9.324;2023-10-19T09:10:23;13.40;90.10
17452;DHT22;8843;48.838;9.324;2023-10-19T09:13:01;13.30;90.70
17452;DHT22;8843;48.838;9.324;2023-10-19T09:15:28;13.20;90.60
17452;DHT22;8843;48.838;9.324;2023-10-19T09:17:58;13.50;88.80
17452;DHT22;8843;48.838;9.324;2023-10-19T09:20:25;13.50;91.10
17452;DHT22;8843;48.838;9.324;2023-10-19T09:22:54;13.40;92.00
17452;DHT22;8843;48.838;9.324;2023-10-19T09:25:23;13.30;91.70
17452;DHT22;8843;48.838;9.324;2023-10-19T09:27:50;13.30;92.20
17452;DHT22;8843;48.838;9.324;2023-10-19T09:30:20;13.30;93.00
17452;DHT22;8843;48.838;9.324;2023-10-19T09:32:48;13.30;93.10
17452;DHT22;8843;48.838;9.324;2023-10-19T09:35:15;13.30;93.40
17452;DHT22;8843;48.838;9.324;2023-10-19T09:37:45;13.30;93.20
17452;DHT22;8843;48.838;9.324;2023-10-19T09:40:13;13.40;93.50
17452;DHT22;8843;48.838;9.324;2023-10-19T09:42:40;13.30;93.00
17452;DHT22;8843;48.838;9.324;2023-10-19T09:45:12;13.40;93.00
17452;DHT22;8843;48.838;9.324;2023-10-19T09:47:41;13.40;93.20
17452;DHT22;8843;48.838;9.324;2023-10-19T09:50:12;13.40;93.30
17452;DHT22;8843;48.838;9.324;2023-10-19T09:52:39;13.40;93.00
17452;DHT22;8843;48.838;9.324;2023-10-19T09:55:12;13.60;93.80
17452;DHT22;8843;48.838;9.324;2023-10-19T09:57:45;13.60;94.30
17452;DHT22;8843;48.838;9.324;2023-10-19T10:00:14;13.60;94.00
17452;DHT22;8843;48.838;9.324;2023-10-19T10:02:51;13.70;94.00
17452;DHT22;8843;48.838;9.324;2023-10-19T10:05:45;13.60;93.60
17452;DHT22;8843;48.838;9.324;2023-10-19T10:08:35;13.80;94.10
17452;DHT22;8843;48.838;9.324;2023-10-19T10:11:19;13.80;93.90
17452;DHT22;8843;48.838;9.324;2023-10-19T10:13:47;13.90;93.70
17452;DHT22;8843;48.838;9.324;2023-10-19T10:16:18;13.90;93.70
17452;DHT22;8843;48.838;9.324;2023-10-19T10:18:48;13.90;94.10
17452;DHT22;8843;48.838;9.324;2023-10-19T10:21:18;13.90;93.90
17452;DHT22;8843;48.838;9.324;2023-10-19T10:23:47;14.00;94.10
17452;DHT22;8843;48.838;9.324;2023-10-19T10:26:16;14.00;94.00
17452;DHT22;8843;48.838;9.324;2023-10-19T10:28:47;14.00;94.00
17452;DHT22;8843;48.838;9.324;2023-10-19T10:31:19;13.90;93.50
17452;DHT22;8843;48.838;9.324;2023-10-19T10:33:49;13.90;93.90
17452;DHT22;8843;48.838;9.324;2023-10-19T10:36:17;13.90;93.80
17452;DHT22;8843;48.838;9.324;2023-10-19T10:38:45;14.00;93.80
17452;DHT22;8843;48.838;9.324;2023-10-19T10:41:19;14.00;94.00
17452;DHT22;8843;48.838;9.324;2023-10-19T10:43:53;14.10;94.10
17452;DHT22;8843;48.838;9.324;2023-10-19T10:46:22;14.10;94.20
17452;DHT22;8843;48.838;9.324;2023-10-19T10:48:50;14.10;94.40
17452;DHT22;8843;48.838;9.324;2023-10-19T10:51:19;14.10;94.30
17452;DHT22;8843;48.838;9.324;2023-10-19T10:53:48;14.10;94.40
17452;DHT22;8843;48.838;9.324;2023-10-19T10:56:16;14.10;94.10
17452;DHT22;8843;48.838;9.324;2023-10-19T10:58:43;14.10;93.90
17452;DHT22;8843;48.838;9.324;2023-10-19T11:01:10;14.10;94.00
17452;DHT22;8843;48.838;9.324;2023-10-19T11:03:38;14.10;94.10
17452;DHT22;8843;48.838;9.324;2023-10-19T11:06:07;14.10;94.10
17452;DHT22;8843;48.838;9.324;2023-10-19T11:08:35;14.10;94.00
17452;DHT22;8843;48.838;9.324;2023-10-19T11:11:04;14.10;94.10
17452;DHT22;8843;48.838;9.324;2023-10-19T11:13:31;14.10;93.80
17452;DHT22;8843;48.838;9.324;2023-10-19T11:16:02;14.10;93.90
17452;DHT22;8843;48.838;9.324;2023-10-19T11:18:30;14.00;93.90
17452;DHT22;8843;48.838;9.324;2023-10-19T11:20:58;14.10;93.80
17452;DHT22;8843;48.838;9.324;2023-10-19T11:23:42;14.10;93.90
17452;DHT22;8843;48.838;9.324;2023-10-19T11:26:10;14.10;93.90
17452;DHT22;8843;48.838;9.324;2023-10-19T11:28:38;14.00;93.80
17452;DHT22;8843;48.838;9.324;2023-10-19T11:31:15;14.00;93.60
17452;DHT22;8843;48.838;9.324;2023-10-19T11:33:44;14.00;93.30
17452;DHT22;8843;48.838;9.324;2023-10-19T11:36:11;14.00;93.50
17452;DHT22;8843;48.838;9.324;2023-10-19T11:38:44;14.00;93.70
17452;DHT22;8843;48.838;9.324;2023-10-19T11:41:12;14.00;93.50
17452;DHT22;8843;48.838;9.324;2023-10-19T11:43:39;14.00;94.00
17452;DHT22;8843;48.838;9.324;2023-10-19T11:46:06;14.00;93.80
17452;DHT22;8843;48.838;9.324;2023-10-19T11:48:34;14.00;93.70
17452;DHT22;8843;48.838;9.324;2023-10-19T11:51:02;14.00;93.60
17452;DHT22;8843;48.838;9.324;2023-10-19T11:53:31;14.00;94.00
17452;DHT22;8843;48.838;9.324;2023-10-19T11:56:02;14.00;94.00
17452;DHT22;8843;48.838;9.324;2023-10-19T11:58:31;14.00;94.20
17452;DHT22;8843;48.838;9.324;2023-10-19T12:01:00;14.00;94.00
17452;DHT22;8843;48.838;9.324;2023-10-19T12:03:28;14.00;94.10
17452;DHT22;8843;48.838;9.324;2023-10-19T12:05:55;13.90;94.10
17452;DHT22;8843;48.838;9.324;2023-10-19T12:08:22;13.90;94.20
17452;DHT22;8843;48.838;9.324;2023-10-19T12:10:50;13.90;94.20
17452;DHT22;8843;48.838;9.324;2023-10-19T12:13:18;13.90;94.20
17452;DHT22;8843;48.838;9.324;2023-10-19T12:15:45;13.90;94.30
17452;DHT22;8843;48.838;9.324;2023-10-19T12:18:18;13.90;94.60
17452;DHT22;8843;48.838;9.324;2023-10-19T12:20:45;13.90;94.40
17452;DHT22;8843;48.838;9.324;2023-10-19T12:23:13;13.90;94.50
17452;DHT22;8843;48.838;9.324;2023-10-19T12:25:40;13.90;94.50
17452;DHT22;8843;48.838;9.324;2023-10-19T12:28:08;13.90;94.50
17452;DHT22;8843;48.838;9.324;2023-10-19T12:30:41;13.90;94.60
17452;DHT22;8843;48.838;9.324;2023-10-19T12:33:08;13.90;94.70
17452;DHT22;8843;48.838;9.324;2023-10-19T12:35:38;13.90;95.10
17452;DHT22;8843;48.838;9.324;2023-10-19T12:38:24;13.90;94.80
17452;DHT22;8843;48.838;9.324;2023-10-19T12:40:51;13.90;94.70
17452;DHT22;8843;48.838;9.324;2023-10-19T12:43:20;13.90;94.80
17452;DHT22;8843;48.838;9.324;2023-10-19T12:45:49;13.90;94.90
17452;DHT22;8843;48.838;9.324;2023-10-19T12:48:20;13.80;94.60
17452;DHT22;8843;48.838;9.324;2023-10-19T12:50:47;13.80;94.50
17452;DHT22;8843;48.838;9.324;2023-10-19T12:53:14;13.80;94.50
17452;DHT22;8843;48.838;9.324;2023-10-19T12:55:41;13.80;94.00
17452;DHT22;8843;48.838;9.324;2023-10-19T12:58:09;13.80;93.90
17452;DHT22;8843;48.838;9.324;2023-10-19T13:00:37;13.80;94.40
17452;DHT22;8843;48.838;9.324;2023-10-19T13:03:08;13.80;94.10
17452;DHT22;8843;48.838;9.324;2023-10-19T13:05:39;13.80;93.40
17452;DHT22;8843;48.838;9.324;2023-10-19T13:08:07;13.80;93.80
17452;DHT22;8843;48.838;9.324;2023-10-19T13:10:35;13.80;93.80
17452;DHT22;8843;48.838;9.324;2023-10-19T13:13:06;13.80;94.40
17452;DHT22;8843;48.838;9.324;2023-10-19T13:15:35;13.80;94.60
17452;DHT22;8843;48.838;9.324;2023-10-19T13:18:02;13.80;94.60
17452;DHT22;8843;48.838;9.324;2023-10-19T13:20:33;13.80;94.70
17452;DHT22;8843;48.838;9.324;2023-10-19T13:23:00;13.80;94.80
17452;DHT22;8843;48.838;9.324;2023-10-19T13:25:32;13.80;94.90
17452;DHT22;8843;48.838;9.324;2023-10-19T13:28:08;13.90;96.10
17452;DHT22;8843;48.838;9.324;2023-10-19T13:30:39;13.80;95.60
17452;DHT22;8843;48.838;9.324;2023-10-19T13:33:06;13.80;95.30
17452;DHT22;8843;48.838;9.324;2023-10-19T13:35:36;13.80;95.30
17452;DHT22;8843;48.838;9.324;2023-10-19T13:38:04;13.80;95.30
17452;DHT22;8843;48.838;9.324;2023-10-19T13:40:31;13.80;95.30
17452;DHT22;8843;48.838;9.324;2023-10-19T13:42:58;13.70;94.60
17452;DHT22;8843;48.838;9.324;2023-10-19T13:45:25;13.70;94.30
17452;DHT22;8843;48.838;9.324;2023-10-19T13:47:52;13.70;94.80
17452;DHT22;8843;48.838;9.324;2023-10-19T13:50:22;13.80;95.30
17452;DHT22;8843;48.838;9.324;2023-10-19T13:52:51;13.80;95.30
17452;DHT22;8843;48.838;9.324;2023-10-19T13:55:19;14.00;96.10
17452;DHT22;8843;48.838;9.324;2023-10-19T13:57:46;14.10;94.10
17452;DHT22;8843;48.838;9.324;2023-10-19T14:00:14;14.50;92.20
17452;DHT22;8843;48.838;9.324;2023-10-19T14:02:49;14.80;91.80
17452;DHT22;8843;48.838;9.324;2023-10-19T14:05:16;14.90;92.10
17452;DHT22;8843;48.838;9.324;2023-10-19T14:07:43;14.90;93.20
17452;DHT22;8843;48.838;9.324;2023-10-19T14:10:12;14.60;94.00
17452;DHT22;8843;48.838;9.324;2023-10-19T14:12:39;14.30;94.60
17452;DHT22;8843;48.838;9.324;2023-10-19T14:15:12;14.10;94.60
17452;DHT22;8843;48.838;9.324;2023-10-19T14:17:39;14.10;94.90
17452;DHT22;8843;48.838;9.324;2023-10-19T14:20:07;14.00;95.20
17452;DHT22;8843;48.838;9.324;2023-10-19T14:22:39;14.00;95.30
17452;DHT22;8843;48.838;9.324;2023-10-19T14:25:06;14.00;95.60
17452;DHT22;8843;48.838;9.324;2023-10-19T14:27:39;13.90;95.40
17452;DHT22;8843;48.838;9.324;2023-10-19T14:30:07;13.90;95.60
17452;DHT22;8843;48.838;9.324;2023-10-19T14:32:37;13.90;95.70
17452;DHT22;8843;48.838;9.324;2023-10-19T14:35:05;13.90;95.90
17452;DHT22;8843;48.838;9.324;2023-10-19T14:37:35;13.90;95.70
17452;DHT22;8843;48.838;9.324;2023-10-19T14:40:06;13.80;95.50
17452;DHT22;8843;48.838;9.324;2023-10-19T14:42:35;14.00;96.40
17452;DHT22;8843;48.838;9.324;2023-10-19T14:45:05;13.90;96.20
17452;DHT22;8843;48.838;9.324;2023-10-19T14:47:35;13.90;96.00
17452;DHT22;8843;48.838;9.324;2023-10-19T14:50:01;13.80;95.20
17452;DHT22;8843;48.838;9.324;2023-10-19T14:52:28;13.80;95.10
17452;DHT22;8843;48.838;9.324;2023-10-19T14:54:55;13.80;95.50
17452;DHT22;8843;48.838;9.324;2023-10-19T14:57:22;13.80;95.00
17452;DHT22;8843;48.838;9.324;2023-10-19T14:59:50;13.90;94.90
17452;DHT22;8843;48.838;9.324;2023-10-19T15:02:18;13.90;94.60
17452;DHT22;8843;48.838;9.324;2023-10-19T15:04:49;13.90;95.30
17452;DHT22;8843;48.838;9.324;2023-10-19T15:07:16;13.90;95.50
17452;DHT22;8843;48.838;9.324;2023-10-19T15:09:43;13.90;95.30
17452;DHT22;8843;48.838;9.324;2023-10-19T15:12:11;13.80;94.70
17452;DHT22;8843;48.838;9.324;2023-10-19T15:14:40;13.80;95.00
17452;DHT22;8843;48.838;9.324;2023-10-19T15:17:08;13.80;95.40
17452;DHT22;8843;48.838;9.324;2023-10-19T15:19:37;13.70;95.00
17452;DHT22;8843;48.838;9.324;2023-10-19T15:22:03;13.80;95.30
17452;DHT22;8843;48.838;9.324;2023-10-19T15:24:30;13.80;94.90
17452;DHT22;8843;48.838;9.324;2023-10-19T15:26:57;13.80;94.70
17452;DHT22;8843;48.838;9.324;2023-10-19T15:29:26;13.90;96.50
17452;DHT22;8843;48.838;9.324;2023-10-19T15:31:53;14.00;95.80
17452;DHT22;8843;48.838;9.324;2023-10-19T15:34:20;14.00;95.90
17452;DHT22;8843;48.838;9.324;2023-10-19T15:36:48;13.90;95.20
17452;DHT22;8843;48.838;9.324;2023-10-19T15:39:15;13.90;95.40
17452;DHT22;8843;48.838;9.324;2023-10-19T15:41:43;13.80;95.20
17452;DHT22;8843;48.838;9.324;2023-10-19T15:44:11;13.80;95.20
17452;DHT22;8843;48.838;9.324;2023-10-19T15:46:37;13.80;95.60
17452;DHT22;8843;48.838;9.324;2023-10-19T15:49:08;13.80;95.80
17452;DHT22;8843;48.838;9.324;2023-10-19T15:51:35;13.80;95.60
17452;DHT22;8843;48.838;9.324;2023-10-19T15:54:03;13.80;95.10
17452;DHT22;8843;48.838;9.324;2023-10-19T15:56:31;13.80;94.80
17452;DHT22;8843;48.838;9.324;2023-10-19T15:58:58;13.80;95.20